Terminal Aerodrome Forecast
Issued by NWS Shreveport, LA

Home | Current Version | Previous Version | Text Only | Print | Product List | Glossary On
Versions: 1 2 3 4 5 6 7 8 9 10 11 12 13 14
000
FTUS44 KSHV 250733 AAA
TAFMLU
TAF AMD
KMLU 250733Z 2508/2606 16005KT P6SM BKN008
      TEMPO 2508/2512 SCT008
     FM251200 17006KT P6SM OVC010
     FM251700 17008KT P6SM SCT020 BKN035
     FM251900 17010KT P6SM VCTS BKN050CB=

USA.gov is the U.S. government's official web portal to all federal, state and local government web resources and services.